createdAt,value
2022-09-07T00:04:25.781Z,67.4
2022-09-07T00:18:50.111Z,71.9
2022-09-07T00:33:15.001Z,86.7
2022-09-07T00:47:41.928Z,93.2
2022-09-07T01:02:11.286Z,92.1
2022-09-07T01:16:40.104Z,90.7
2022-09-07T01:31:15.156Z,90.5
2022-09-07T01:45:44.235Z,88.2
2022-09-07T02:00:08.306Z,89
2022-09-07T02:14:36.767Z,91.1
2022-09-07T02:29:04.635Z,90.1
2022-09-07T02:43:38.846Z,94.2
2022-09-07T02:58:10.074Z,87.5
2022-09-07T03:12:34.095Z,91.4
2022-09-07T03:27:01.659Z,90.1
2022-09-07T03:41:29.890Z,88.1
2022-09-07T03:55:55.691Z,88.9
2022-09-07T04:10:24.319Z,88.7
2022-09-07T04:24:52.618Z,91.4
2022-09-07T04:39:20.981Z,89.8
2022-09-07T04:53:55.183Z,89
2022-09-07T05:08:25.962Z,89.8
2022-09-07T05:22:51.601Z,91.1
2022-09-07T05:37:19.289Z,90.4
2022-09-07T05:51:47.999Z,93.5
2022-09-07T06:06:21.806Z,98.8
2022-09-07T06:20:52.041Z,95.6
2022-09-07T06:35:17.097Z,99.2
2022-09-07T06:49:46.458Z,100
2022-09-07T07:04:15.873Z,97.3
2022-09-07T07:18:44.866Z,94.1
2022-09-07T07:33:23.326Z,78.4
2022-09-07T07:47:46.849Z,84.2
2022-09-07T08:02:14.311Z,85.1
2022-09-07T08:16:58.883Z,69.2
2022-09-07T08:31:34.267Z,56.7
2022-09-07T08:46:05.155Z,60.1
2022-09-07T09:00:36.456Z,66.9
2022-09-07T09:15:04.342Z,65.3
2022-09-07T09:29:39.362Z,54.9
2022-09-07T09:44:06.716Z,61.6
2022-09-07T09:59:05.196Z,62.9
2022-09-07T10:13:54.807Z,61.6
2022-09-07T10:28:22.624Z,58.4
2022-09-07T10:43:21.950Z,59
2022-09-07T10:57:31.049Z,60.5
2022-09-07T11:12:03.254Z,60.2
2022-09-07T11:26:29.222Z,58.6
2022-09-07T11:40:58.256Z,56.2
2022-09-07T11:55:26.156Z,55.2
2022-09-07T12:09:55.266Z,53
2022-09-07T12:24:23.735Z,54.1
2022-09-07T12:38:48.631Z,56.4
2022-09-07T12:53:24.035Z,53.2
2022-09-07T13:08:08.175Z,51.9
2022-09-07T13:22:25.184Z,48.8
2022-09-07T13:36:52.422Z,49.7
2022-09-07T13:51:20.931Z,48.2
2022-09-07T14:05:50.608Z,47.8
2022-09-07T14:20:17.027Z,49.3
2022-09-07T14:34:45.672Z,49
2022-09-07T14:49:21.226Z,47
2022-09-07T15:03:50.169Z,48.6
2022-09-07T15:18:13.486Z,49
2022-09-07T15:32:43.060Z,48.6
2022-09-07T15:47:43.948Z,48.1
2022-09-07T16:02:02.611Z,48.9
2022-09-07T16:46:53.197Z,49.2
2022-09-07T17:01:22.011Z,49.2
2022-09-07T17:15:48.252Z,50.2
2022-09-07T17:30:16.657Z,52.3
2022-09-07T17:44:43.259Z,54
2022-09-07T18:14:11.169Z,57.2
2022-09-07T18:29:13.500Z,61.3
2022-09-07T18:43:35.827Z,60.2
2022-09-07T18:58:05.981Z,63.3
2022-09-07T19:12:32.356Z,63.3
2022-09-07T19:27:01.392Z,64
2022-09-07T19:41:28.287Z,62.9
2022-09-07T19:55:57.405Z,64.9
2022-09-07T20:10:27.318Z,70.1
2022-09-07T20:24:53.494Z,70.6
2022-09-07T20:39:20.475Z,70.3
2022-09-07T20:53:47.318Z,71.5
2022-09-07T21:08:16.026Z,75.2
2022-09-07T21:22:44.428Z,73.7
2022-09-07T21:37:11.510Z,72.8
2022-09-07T21:51:37.442Z,73
2022-09-07T22:06:05.662Z,73.4
2022-09-07T22:20:34.939Z,77.4
2022-09-07T22:35:02.498Z,80.3
2022-09-07T22:49:29.974Z,77.1
2022-09-07T23:03:59.425Z,78
2022-09-07T23:18:29.514Z,82.1
2022-09-07T23:32:56.986Z,79.4
2022-09-07T23:47:25.015Z,77.4
